DEAGJ EDDN-ZZZZ

Flight info

Callsign DEAGJ
Flight time N/A
Altitude
Route
Aircraft C152

Departure

Time 2026-04-27 13:41
Airport Nuremberg Airport (EDDN)

Arrival

Time N/A
Airport ZZZZ
Time Latitude Longitude Altitude Speed Heading
2026-04-27 13:33 49.49555 11.07090 1024 ft 0 kts 187°
2026-04-27 13:34 49.49550 11.07089 1024 ft 5 kts 187°
2026-04-27 13:34 49.49514 11.07101 1023 ft 3 kts 121°
2026-04-27 13:34 49.49506 11.07161 1023 ft 8 kts 90°
2026-04-27 13:34 49.49539 11.07198 1025 ft 7 kts
2026-04-27 13:35 49.49605 11.07212 1027 ft 12 kts
2026-04-27 13:35 49.49634 11.07288 1029 ft 10 kts 97°
2026-04-27 13:35 49.49622 11.07406 1029 ft 12 kts 97°
2026-04-27 13:35 49.49609 11.07545 1031 ft 14 kts 98°
2026-04-27 13:36 49.49593 11.07701 1031 ft 16 kts 99°
2026-04-27 13:36 49.49576 11.07874 1032 ft 17 kts 99°
2026-04-27 13:36 49.49558 11.08060 1032 ft 19 kts 98°
2026-04-27 13:36 49.49539 11.08259 1033 ft 13 kts 97°
2026-04-27 13:37 49.49557 11.08356 1036 ft 9 kts 18°
2026-04-27 13:37 49.49599 11.08349 1037 ft 0 kts 329°
2026-04-27 13:37 49.49613 11.08381 1037 ft 8 kts 49°
2026-04-27 13:38 49.49654 11.08464 1037 ft 12 kts 54°
2026-04-27 13:38 49.49699 11.08545 1039 ft 0 kts 28°
2026-04-27 13:39 49.49699 11.08546 1039 ft 1 kts 27°
2026-04-27 13:39 49.49788 11.08531 1037 ft 21 kts 311°
2026-04-27 13:40 49.49829 11.08225 1037 ft 49 kts 278°
2026-04-27 13:40 49.49909 11.07540 1118 ft 70 kts 282°
2026-04-27 13:40 49.49976 11.06846 1356 ft 65 kts 260°
2026-04-27 13:40 49.49677 11.06337 1527 ft 69 kts 216°
2026-04-27 13:41 49.49295 11.05890 1723 ft 69 kts 220°
2026-04-27 13:41 49.48966 11.05364 1918 ft 69 kts 232°
2026-04-27 13:41 49.48675 11.04814 2117 ft 63 kts 235°
2026-04-27 13:41 49.48436 11.04263 2268 ft 64 kts 238°
2026-04-27 13:42 49.48178 11.03613 2327 ft 80 kts 242°
2026-04-27 13:42 49.47903 11.02814 2387 ft 88 kts 240°
2026-04-27 13:42 49.47554 11.01954 2382 ft 98 kts 237°
2026-04-27 13:42 49.47128 11.01147 2416 ft 95 kts 223°
2026-04-27 13:43 49.46580 11.00600 2400 ft 94 kts 210°
2026-04-27 13:43 49.46019 11.00099 2387 ft 93 kts 213°
2026-04-27 13:43 49.45476 10.99588 2408 ft 89 kts 213°
2026-04-27 13:43 49.44953 10.99071 2398 ft 91 kts 216°
2026-04-27 13:44 49.44434 10.98507 2384 ft 91 kts 216°
2026-04-27 13:44 49.43887 10.98046 2379 ft 89 kts 202°
2026-04-27 13:44 49.43265 10.97829 2481 ft 93 kts 184°
2026-04-27 13:44 49.42662 10.98010 2720 ft 87 kts 153°
2026-04-27 13:45 49.42146 10.98494 2886 ft 84 kts 149°
2026-04-27 13:45 49.41646 10.99009 3081 ft 86 kts 146°
2026-04-27 13:45 49.41157 10.99568 3152 ft 87 kts 144°
2026-04-27 13:45 49.40636 11.00046 3187 ft 89 kts 152°
2026-04-27 13:46 49.40074 11.00525 3201 ft 95 kts 153°
2026-04-27 13:46 49.39466 11.01052 3150 ft 102 kts 153°
2026-04-27 13:46 49.38883 11.01585 3244 ft 96 kts 149°
2026-04-27 13:46 49.38346 11.01848 3465 ft 86 kts 196°
2026-04-27 13:47 49.37817 11.01201 3032 ft 113 kts 234°
2026-04-27 13:47 49.37803 11.00152 2799 ft 106 kts 282°
2026-04-27 13:47 49.37687 10.99109 2850 ft 95 kts 248°
2026-04-27 13:47 49.37149 10.98940 2850 ft 97 kts 178°
2026-04-27 13:48 49.36457 10.98636 2762 ft 103 kts 206°
2026-04-27 13:48 49.35850 10.98059 2754 ft 102 kts 217°
2026-04-27 13:48 49.35281 10.97408 2797 ft 101 kts 225°
2026-04-27 13:48 49.35085 10.96445 2887 ft 96 kts 240°
2026-04-27 13:49 49.34483 10.96041 2954 ft 102 kts 173°
2026-04-27 13:49 49.33901 10.96669 2958 ft 108 kts 130°
2026-04-27 13:49 49.33432 10.97459 2980 ft 94 kts 136°
2026-04-27 13:49 49.32934 10.98117 3026 ft 102 kts 142°
2026-04-27 13:50 49.32332 10.98824 2983 ft 114 kts 145°
2026-04-27 13:50 49.31675 10.99496 2935 ft 114 kts 149°
2026-04-27 13:50 49.31014 11.00117 2925 ft 111 kts 149°
2026-04-27 13:50 49.30356 11.00786 2834 ft 117 kts 150°
2026-04-27 13:51 49.30108 11.01650 2874 ft 104 kts 69°
2026-04-27 13:51 49.30520 11.01779 2824 ft 96 kts 217°
2026-04-27 13:51 49.29917 11.01563 2817 ft 98 kts 240°
2026-04-27 13:51 49.29891 11.00430 2556 ft 109 kts 272°
2026-04-27 13:52 49.29794 10.99341 2468 ft 98 kts 246°
2026-04-27 13:52 49.29323 10.98669 2422 ft 92 kts 202°
2026-04-27 13:52 49.28729 10.98313 2360 ft 92 kts 204°
2026-04-27 13:52 49.28148 10.97946 2321 ft 90 kts 205°
2026-04-27 13:53 49.27022 10.97105 2271 ft 89 kts 204°
2026-04-27 13:53 49.26403 10.96972 2225 ft 91 kts 172°
2026-04-27 13:53 49.25838 10.97414 2167 ft 93 kts 137°
2026-04-27 13:54 49.25410 10.98125 2125 ft 88 kts 133°
2026-04-27 13:54 49.25083 10.98791 2136 ft 72 kts 115°
2026-04-27 13:54 49.24926 10.99531 2065 ft 74 kts 105°
2026-04-27 13:54 49.24802 11.00274 2027 ft 72 kts 105°
2026-04-27 13:55 49.24690 11.01009 1980 ft 71 kts 102°
2026-04-27 13:55 49.24575 11.01757 1935 ft 73 kts 105°
2026-04-27 13:55 49.24465 11.02506 1922 ft 72 kts 92°
2026-04-27 13:55 49.24620 11.03223 1846 ft 70 kts 50°
2026-04-27 13:56 49.25030 11.03612 1781 ft 70 kts 20°
2026-04-27 13:56 49.25486 11.03842 1744 ft 68 kts 13°
2026-04-27 13:56 49.25956 11.03980 1717 ft 68 kts
2026-04-27 13:56 49.26426 11.03976 1678 ft 68 kts 334°
2026-04-27 13:57 49.26642 11.03427 1642 ft 65 kts 273°
2026-04-27 13:57 49.26642 11.02710 1522 ft 67 kts 269°
2026-04-27 13:57 49.26682 11.02000 1331 ft 66 kts 283°
2026-04-27 13:57 49.26785 11.01373 1189 ft 50 kts 284°
2026-04-27 13:58 49.26832 11.01117 1187 ft 7 kts 272°
2026-04-27 13:58 49.26827 11.01110 1187 ft 3 kts 142°
2026-04-27 13:58 49.26808 11.01134 1188 ft 5 kts 199°
2026-04-27 13:58 49.26781 11.01120 1187 ft 0 kts 166°
2026-04-27 13:59 49.26778 11.01131 1187 ft 0 kts 101°